createdAt,value
2023-03-29T00:00:49.558Z,6.07
2023-03-29T00:03:16.978Z,5.53
2023-03-29T00:05:44.692Z,5.65
2023-03-29T00:08:14.255Z,5.55
2023-03-29T00:10:41.217Z,5.30
2023-03-29T00:13:07.598Z,5.10
2023-03-29T00:15:34.071Z,5.32
2023-03-29T00:18:00.717Z,5.07
2023-03-29T00:20:28.627Z,5.43
2023-03-29T00:22:55.248Z,6.10
2023-03-29T00:25:21.668Z,5.65
2023-03-29T00:27:48.191Z,5.63
2023-03-29T00:30:15.262Z,5.05
2023-03-29T00:32:41.885Z,5.55
2023-03-29T00:35:09.057Z,5.50
2023-03-29T00:37:35.465Z,5.10
2023-03-29T00:40:01.976Z,5.50
2023-03-29T00:42:28.409Z,5.15
2023-03-29T00:45:05.285Z,5.90
2023-03-29T00:47:37.456Z,5.32
2023-03-29T00:52:33.037Z,4.90
2023-03-29T00:55:03.358Z,5.40
2023-03-29T00:57:30.706Z,5.43
2023-03-29T00:59:58.415Z,5.20
2023-03-29T01:02:28.099Z,5.63
2023-03-29T01:05:06.439Z,6.07
2023-03-29T01:07:38.200Z,5.50
2023-03-29T01:10:31.665Z,5.70
2023-03-29T01:13:02.437Z,7.13
2023-03-29T01:15:29.279Z,6.35
2023-03-29T01:17:58.037Z,5.63
2023-03-29T01:20:43.430Z,5.88
2023-03-29T01:23:31.224Z,6.07
2023-03-29T01:26:16.880Z,5.78
2023-03-29T01:28:49.563Z,5.85
2023-03-29T01:31:28.772Z,5.72
2023-03-29T01:34:02.459Z,6.32
2023-03-29T01:36:39.186Z,5.50
2023-03-29T01:39:06.908Z,5.47
2023-03-29T01:42:13.840Z,6.00
2023-03-29T01:44:52.599Z,6.47
2023-03-29T01:47:20.061Z,6.18
2023-03-29T01:49:58.525Z,5.78
2023-03-29T01:52:30.914Z,5.47
2023-03-29T01:55:13.436Z,6.05
2023-03-29T01:57:42.398Z,5.93
2023-03-29T02:00:14.136Z,6.03
2023-03-29T02:02:42.435Z,5.53
2023-03-29T02:05:09.898Z,5.65
2023-03-29T02:07:38.135Z,5.65
2023-03-29T02:10:06.521Z,5.20
2023-03-29T02:12:33.414Z,5.50
2023-03-29T02:15:00.931Z,5.85
2023-03-29T02:17:27.928Z,5.28
2023-03-29T02:20:22.189Z,5.00
2023-03-29T02:23:13.617Z,5.20
2023-03-29T02:25:40.562Z,4.90
2023-03-29T02:28:07.483Z,5.90
2023-03-29T02:30:51.470Z,5.40
2023-03-29T02:33:22.060Z,5.53
2023-03-29T02:35:56.611Z,4.97
2023-03-29T02:38:26.355Z,5.57
2023-03-29T02:40:52.888Z,4.60
2023-03-29T02:43:19.885Z,4.55
2023-03-29T02:45:47.018Z,5.10
2023-03-29T02:48:16.227Z,5.20
2023-03-29T02:50:45.897Z,4.90
2023-03-29T02:53:23.030Z,4.50
2023-03-29T02:55:49.558Z,5.35
2023-03-29T02:58:15.976Z,4.72
2023-03-29T03:00:46.054Z,4.32
2023-03-29T03:03:13.311Z,4.35
2023-03-29T03:05:39.793Z,4.22
2023-03-29T03:08:07.350Z,4.70
2023-03-29T03:10:34.935Z,4.78
2023-03-29T03:13:01.364Z,4.82
2023-03-29T03:15:27.902Z,4.25
2023-03-29T03:17:54.755Z,4.15
2023-03-29T03:20:23.997Z,4.90
2023-03-29T03:22:50.436Z,4.05
2023-03-29T03:25:19.373Z,4.22
2023-03-29T03:27:47.365Z,3.80
2023-03-29T03:30:14.109Z,4.07
2023-03-29T03:32:41.287Z,4.15
2023-03-29T03:35:07.927Z,4.38
2023-03-29T03:37:34.434Z,4.15
2023-03-29T03:40:01.135Z,3.83
2023-03-29T03:42:29.895Z,3.50
2023-03-29T03:44:56.501Z,4.10
2023-03-29T03:47:23.594Z,3.85
2023-03-29T03:49:51.264Z,3.70
2023-03-29T03:52:18.528Z,3.83
2023-03-29T03:54:46.561Z,3.88
2023-03-29T03:57:13.159Z,3.60
2023-03-29T03:59:39.558Z,3.88
2023-03-29T04:02:06.638Z,4.00
2023-03-29T04:04:33.094Z,3.67
2023-03-29T04:07:02.719Z,3.80
2023-03-29T04:09:31.062Z,3.97
2023-03-29T04:11:58.251Z,3.83
2023-03-29T04:14:25.883Z,4.03
2023-03-29T04:16:53.066Z,3.78
2023-03-29T04:19:19.530Z,3.92
2023-03-29T04:21:47.472Z,3.90
2023-03-29T04:24:13.883Z,3.85
2023-03-29T04:26:40.323Z,3.75
2023-03-29T04:29:07.101Z,3.78
2023-03-29T04:31:33.808Z,4.82
2023-03-29T04:34:00.628Z,4.18
2023-03-29T04:36:27.062Z,4.10
2023-03-29T04:38:53.433Z,4.78
2023-03-29T04:41:20.204Z,4.43
2023-03-29T04:43:47.620Z,4.22
2023-03-29T04:46:14.684Z,4.78
2023-03-29T04:48:41.781Z,4.88
2023-03-29T04:51:08.149Z,4.22
2023-03-29T04:53:34.547Z,4.65
2023-03-29T04:56:01.205Z,4.57
2023-03-29T04:58:32.177Z,5.10
2023-03-29T05:00:59.140Z,4.70
2023-03-29T05:03:26.907Z,5.22
2023-03-29T05:05:53.367Z,5.25
2023-03-29T05:08:19.816Z,5.13
2023-03-29T05:10:47.421Z,5.57
2023-03-29T05:13:13.794Z,4.85
2023-03-29T05:15:41.302Z,5.15
2023-03-29T05:18:08.011Z,5.13
2023-03-29T05:20:34.488Z,4.90
2023-03-29T05:23:01.390Z,4.85
2023-03-29T05:25:28.119Z,4.57
2023-03-29T05:27:54.510Z,4.88
2023-03-29T05:30:20.942Z,4.63
2023-03-29T05:32:47.904Z,5.35
2023-03-29T05:35:14.349Z,5.88
2023-03-29T05:37:40.782Z,4.53
2023-03-29T05:40:10.028Z,5.00
2023-03-29T05:42:37.904Z,4.45
2023-03-29T05:45:05.182Z,4.28
2023-03-29T05:47:31.662Z,6.22
2023-03-29T05:49:58.100Z,5.18
2023-03-29T05:52:24.761Z,5.35
2023-03-29T05:54:51.526Z,5.05
2023-03-29T05:57:18.009Z,5.20
2023-03-29T05:59:44.723Z,5.63
2023-03-29T06:02:12.288Z,5.68
2023-03-29T06:04:39.946Z,5.10
2023-03-29T06:07:07.020Z,5.85
2023-03-29T06:09:33.559Z,5.88
2023-03-29T06:12:01.714Z,6.90
2023-03-29T06:14:28.862Z,6.20
2023-03-29T06:16:56.449Z,7.03
2023-03-29T06:19:23.026Z,7.55
2023-03-29T06:21:49.839Z,6.72
2023-03-29T06:24:16.241Z,6.65
2023-03-29T06:26:42.641Z,6.53
2023-03-29T06:29:09.129Z,6.60
2023-03-29T06:31:36.282Z,5.90
2023-03-29T06:34:04.741Z,6.47
2023-03-29T06:36:34.035Z,6.68
2023-03-29T06:39:00.816Z,7.45
2023-03-29T06:41:27.199Z,6.85
2023-03-29T06:43:54.654Z,7.50
2023-03-29T06:46:21.079Z,6.70
2023-03-29T06:48:48.166Z,6.68
2023-03-29T06:51:14.589Z,5.72
2023-03-29T06:53:40.970Z,6.75
2023-03-29T06:56:09.170Z,6.70
2023-03-29T06:58:35.924Z,6.78
2023-03-29T07:01:03.866Z,7.45
2023-03-29T07:03:30.750Z,7.28
2023-03-29T07:06:09.644Z,6.85
2023-03-29T07:08:43.218Z,6.28
2023-03-29T07:11:12.422Z,6.75
2023-03-29T07:13:43.170Z,7.22
2023-03-29T07:16:14.044Z,6.43
2023-03-29T07:18:42.687Z,6.63
2023-03-29T07:21:10.595Z,7.60
2023-03-29T07:23:37.486Z,5.97
2023-03-29T07:26:07.478Z,6.22
2023-03-29T07:28:34.580Z,6.88
2023-03-29T07:31:09.874Z,6.60
2023-03-29T07:33:37.257Z,6.68
2023-03-29T07:36:04.900Z,6.20
2023-03-29T07:38:32.398Z,5.85
2023-03-29T07:40:59.272Z,6.03
2023-03-29T07:43:25.767Z,5.72
2023-03-29T07:45:52.573Z,6.20
2023-03-29T07:48:19.406Z,6.15
2023-03-29T07:50:46.050Z,5.38
2023-03-29T07:53:13.034Z,5.75
2023-03-29T07:55:47.361Z,5.22
2023-03-29T07:58:14.622Z,5.40
2023-03-29T08:00:41.564Z,5.03
2023-03-29T08:03:10.763Z,5.28
2023-03-29T08:05:41.395Z,5.20
2023-03-29T08:08:09.405Z,5.43
2023-03-29T08:10:37.651Z,5.55
2023-03-29T08:13:09.018Z,5.25
2023-03-29T08:15:37.689Z,5.68
2023-03-29T08:18:04.395Z,5.43
2023-03-29T08:20:32.092Z,5.03
2023-03-29T08:22:58.481Z,4.95
2023-03-29T08:25:24.894Z,5.00
2023-03-29T08:27:51.414Z,5.38
2023-03-29T08:30:18.116Z,5.40
2023-03-29T08:32:46.958Z,4.70
2023-03-29T08:35:15.392Z,5.25
2023-03-29T08:37:42.180Z,5.00
2023-03-29T08:40:16.202Z,5.00
2023-03-29T08:42:55.353Z,5.05
2023-03-29T08:45:31.817Z,5.13
2023-03-29T08:48:19.055Z,4.75
2023-03-29T08:50:52.925Z,4.80
2023-03-29T08:53:36.328Z,4.88
2023-03-29T08:56:08.688Z,4.20
2023-03-29T08:58:36.980Z,4.85
2023-03-29T09:01:05.885Z,4.60
2023-03-29T09:03:37.363Z,4.70
2023-03-29T09:06:08.722Z,5.68
2023-03-29T09:08:38.367Z,5.00
2023-03-29T09:11:07.881Z,4.55
2023-03-29T09:13:38.990Z,4.03
2023-03-29T09:16:13.452Z,4.35
2023-03-29T09:18:55.699Z,4.38
2023-03-29T09:21:46.501Z,4.90
2023-03-29T09:24:38.698Z,4.70
2023-03-29T09:27:10.539Z,4.70
2023-03-29T09:29:46.432Z,4.70
2023-03-29T09:32:26.423Z,5.22
2023-03-29T09:35:27.841Z,5.38
2023-03-29T09:37:54.899Z,6.43
2023-03-29T09:40:39.379Z,5.70
2023-03-29T09:43:09.398Z,5.70
2023-03-29T09:45:38.341Z,6.05
2023-03-29T09:48:13.431Z,5.68
2023-03-29T09:50:47.668Z,6.47
2023-03-29T09:53:15.213Z,5.88
2023-03-29T09:55:43.290Z,7.55
2023-03-29T09:58:21.141Z,5.63
2023-03-29T10:00:48.992Z,6.32
2023-03-29T10:03:21.140Z,5.63
2023-03-29T10:08:20.464Z,5.60
2023-03-29T10:10:47.029Z,5.70
2023-03-29T10:13:18.989Z,5.60
2023-03-29T10:15:57.531Z,6.25
2023-03-29T10:18:24.987Z,6.85
2023-03-29T10:20:51.359Z,5.35
2023-03-29T10:23:18.558Z,6.10
2023-03-29T10:25:45.415Z,5.28
2023-03-29T10:28:16.216Z,6.03
2023-03-29T10:30:42.814Z,5.68
2023-03-29T10:33:19.092Z,5.85
2023-03-29T10:35:46.893Z,6.22
2023-03-29T10:38:16.054Z,5.55
2023-03-29T10:40:47.487Z,6.20
2023-03-29T10:43:16.976Z,6.80
2023-03-29T10:45:43.945Z,5.63
2023-03-29T10:48:14.827Z,5.07
2023-03-29T10:50:42.694Z,5.38
2023-03-29T10:53:15.902Z,6.50
2023-03-29T10:55:49.621Z,5.13
2023-03-29T10:58:15.940Z,5.10
2023-03-29T11:00:52.356Z,5.60
2023-03-29T11:03:38.397Z,5.60
2023-03-29T11:06:14.555Z,5.13
2023-03-29T11:09:21.025Z,4.85
2023-03-29T11:12:04.444Z,5.28
2023-03-29T11:14:47.389Z,5.50
2023-03-29T11:17:42.242Z,5.03
2023-03-29T11:20:18.202Z,6.00
2023-03-29T11:23:29.812Z,4.90
2023-03-29T11:26:13.474Z,6.05
2023-03-29T11:29:00.085Z,5.78
2023-03-29T11:31:49.365Z,5.10
2023-03-29T11:34:22.645Z,4.78
2023-03-29T11:37:00.984Z,4.60
2023-03-29T11:40:11.058Z,4.95
2023-03-29T11:42:41.758Z,4.70
2023-03-29T11:45:14.506Z,4.53
2023-03-29T11:47:42.107Z,5.03
2023-03-29T11:50:22.253Z,4.82
2023-03-29T11:52:54.592Z,4.10
2023-03-29T11:55:27.477Z,4.50
2023-03-29T11:58:01.344Z,3.85
2023-03-29T12:00:32.734Z,4.35
2023-03-29T12:03:17.466Z,4.05
2023-03-29T12:05:57.378Z,4.97
2023-03-29T12:08:29.585Z,3.92
2023-03-29T12:13:47.888Z,4.13
2023-03-29T12:16:42.250Z,4.40
2023-03-29T12:19:22.090Z,4.18
2023-03-29T12:21:49.015Z,3.63
2023-03-29T12:24:17.254Z,4.03
2023-03-29T12:26:46.877Z,4.72
2023-03-29T12:29:32.082Z,4.18
2023-03-29T12:32:16.763Z,4.03
2023-03-29T12:35:18.678Z,4.15
2023-03-29T12:37:52.187Z,4.30
2023-03-29T12:40:20.335Z,4.47
2023-03-29T12:42:48.305Z,4.00
2023-03-29T12:45:19.431Z,4.18
2023-03-29T12:47:47.169Z,3.78
2023-03-29T12:50:32.241Z,4.18
2023-03-29T12:53:04.145Z,3.08
2023-03-29T12:55:40.129Z,4.28
2023-03-29T12:58:20.783Z,3.90
2023-03-29T13:00:47.980Z,3.80
2023-03-29T13:03:39.281Z,3.22
2023-03-29T13:06:09.256Z,4.38
2023-03-29T13:08:44.160Z,3.65
2023-03-29T13:11:23.554Z,3.80
2023-03-29T13:13:50.699Z,3.85
2023-03-29T13:16:18.800Z,3.67
2023-03-29T13:18:54.334Z,3.78
2023-03-29T13:21:27.240Z,2.90
2023-03-29T13:23:58.927Z,4.18
2023-03-29T13:26:49.682Z,3.97
2023-03-29T13:29:23.896Z,4.25
2023-03-29T13:32:03.083Z,3.80
2023-03-29T13:34:38.134Z,3.60
2023-03-29T13:37:23.121Z,3.90
2023-03-29T13:39:52.837Z,4.18
2023-03-29T13:42:21.473Z,4.25
2023-03-29T13:44:49.181Z,3.83
2023-03-29T13:47:48.968Z,4.53
2023-03-29T13:50:39.617Z,3.42
2023-03-29T13:53:26.228Z,3.42
2023-03-29T13:55:53.081Z,3.10
2023-03-29T13:58:32.762Z,3.80
2023-03-29T14:01:02.684Z,3.70
2023-03-29T14:03:31.071Z,4.00
2023-03-29T14:05:59.764Z,3.95
2023-03-29T14:08:29.154Z,4.05
2023-03-29T14:10:55.798Z,3.60
2023-03-29T14:13:23.700Z,4.20
2023-03-29T14:16:02.802Z,4.50
2023-03-29T14:18:51.353Z,4.22
2023-03-29T14:21:18.417Z,4.03
2023-03-29T14:23:46.897Z,4.15
2023-03-29T14:26:21.882Z,3.53
2023-03-29T14:28:53.254Z,4.20
2023-03-29T14:31:25.501Z,4.15
2023-03-29T14:33:55.999Z,5.05
2023-03-29T14:36:23.139Z,4.45
2023-03-29T14:38:57.944Z,4.72
2023-03-29T14:41:29.585Z,4.72
2023-03-29T14:43:56.472Z,4.47
2023-03-29T14:46:23.193Z,4.43
2023-03-29T14:48:49.751Z,4.00
2023-03-29T14:51:16.234Z,3.88
2023-03-29T14:53:42.882Z,3.85
2023-03-29T14:56:15.889Z,4.32
2023-03-29T14:58:48.826Z,4.47
2023-03-29T15:01:23.496Z,4.53
2023-03-29T15:04:07.947Z,4.88
2023-03-29T15:06:41.826Z,4.07
2023-03-29T15:09:14.902Z,3.80
2023-03-29T15:11:41.563Z,5.00
2023-03-29T15:14:12.161Z,3.30
2023-03-29T15:16:43.468Z,3.75
2023-03-29T15:19:15.880Z,3.67
2023-03-29T15:21:43.106Z,4.00
2023-03-29T15:24:32.524Z,3.13
2023-03-29T15:27:23.581Z,3.40
2023-03-29T15:29:50.203Z,4.10
2023-03-29T15:32:24.793Z,3.05
2023-03-29T15:35:01.404Z,3.55
2023-03-29T15:37:28.146Z,3.45
2023-03-29T15:39:54.722Z,3.63
2023-03-29T15:42:21.493Z,3.78
2023-03-29T15:44:47.920Z,3.30
2023-03-29T15:47:14.409Z,3.58
2023-03-29T15:49:41.062Z,3.72
2023-03-29T15:52:07.446Z,4.15
2023-03-29T15:54:34.898Z,4.05
2023-03-29T15:57:06.299Z,4.30
2023-03-29T15:59:33.447Z,4.03
2023-03-29T16:02:00.369Z,3.83
2023-03-29T16:04:26.864Z,4.07
2023-03-29T16:06:55.202Z,4.00
2023-03-29T16:09:22.320Z,4.13
2023-03-29T16:11:49.651Z,3.75
2023-03-29T16:14:26.882Z,4.13
2023-03-29T16:16:55.378Z,3.40
2023-03-29T16:19:22.542Z,4.72
2023-03-29T16:21:49.135Z,3.83
2023-03-29T16:24:19.426Z,4.03
2023-03-29T16:26:46.276Z,3.75
2023-03-29T16:29:12.757Z,3.70
2023-03-29T16:31:39.391Z,4.32
2023-03-29T16:34:06.202Z,3.78
2023-03-29T16:36:33.754Z,3.80
2023-03-29T16:39:00.259Z,3.75
2023-03-29T16:41:26.962Z,4.00
2023-03-29T16:43:53.346Z,4.22
2023-03-29T16:46:19.817Z,3.58
2023-03-29T16:48:46.391Z,3.95
2023-03-29T16:51:12.815Z,4.03
2023-03-29T16:53:39.214Z,3.58
2023-03-29T16:56:07.753Z,3.55
2023-03-29T16:58:34.315Z,3.40
2023-03-29T17:01:11.592Z,3.70
2023-03-29T17:03:38.287Z,3.40
2023-03-29T17:06:05.641Z,3.72
2023-03-29T17:08:32.297Z,3.88
2023-03-29T17:10:59.033Z,3.70
2023-03-29T17:13:26.060Z,3.33
2023-03-29T17:15:54.124Z,3.95
2023-03-29T17:18:21.477Z,5.88
2023-03-29T17:20:50.587Z,60.30
2023-03-29T17:23:17.163Z,29.27
2023-03-29T17:25:43.576Z,31.88
2023-03-29T17:28:10.915Z,53.03
2023-03-29T17:30:37.796Z,29.00
2023-03-29T17:33:04.667Z,37.78
2023-03-29T17:35:31.272Z,7.60
2023-03-29T17:37:58.582Z,54.72
2023-03-29T17:40:25.113Z,49.22
2023-03-29T17:42:52.489Z,11.02
2023-03-29T17:45:19.291Z,3.65
2023-03-29T17:47:45.780Z,3.90
2023-03-29T17:50:12.888Z,3.85
2023-03-29T17:52:39.691Z,3.65
2023-03-29T17:55:16.148Z,6.22
2023-03-29T17:57:42.791Z,3.72
2023-03-29T18:00:13.701Z,8.30
2023-03-29T18:02:40.703Z,10.10
2023-03-29T18:05:09.312Z,7.35
2023-03-29T18:07:36.314Z,5.55
2023-03-29T18:10:02.769Z,3.45
2023-03-29T18:12:29.451Z,5.95
2023-03-29T18:14:59.295Z,5.53
2023-03-29T18:17:27.206Z,9.50
2023-03-29T18:19:53.675Z,2.95
2023-03-29T18:22:20.653Z,13.20
2023-03-29T18:24:48.079Z,7.38
2023-03-29T18:27:15.744Z,6.82
2023-03-29T18:29:43.844Z,7.00
2023-03-29T18:32:10.936Z,6.07
2023-03-29T18:34:38.968Z,8.20
2023-03-29T18:37:05.898Z,3.85
2023-03-29T18:39:34.488Z,3.63
2023-03-29T18:42:01.532Z,4.88
2023-03-29T18:44:28.210Z,7.97
2023-03-29T18:46:54.615Z,12.38
2023-03-29T18:49:21.317Z,8.07
2023-03-29T18:51:48.237Z,4.97
2023-03-29T18:54:14.598Z,5.07
2023-03-29T18:56:41.041Z,21.80
2023-03-29T18:59:07.429Z,6.03
2023-03-29T19:01:34.257Z,3.88
2023-03-29T19:04:01.028Z,4.10
2023-03-29T19:06:27.870Z,4.30
2023-03-29T19:08:55.423Z,4.57
2023-03-29T19:11:22.896Z,7.22
2023-03-29T19:13:50.608Z,5.97
2023-03-29T19:16:17.312Z,12.13
2023-03-29T19:18:43.850Z,9.68
2023-03-29T19:21:10.641Z,8.77
2023-03-29T19:23:37.264Z,5.13
2023-03-29T19:26:05.374Z,4.25
2023-03-29T19:28:33.224Z,4.10
2023-03-29T19:31:01.788Z,4.82
2023-03-29T19:33:29.294Z,3.03
2023-03-29T19:35:56.321Z,3.70
2023-03-29T19:38:22.809Z,3.85
2023-03-29T19:40:51.157Z,3.17
2023-03-29T19:43:18.258Z,3.25
2023-03-29T19:45:49.470Z,3.72
2023-03-29T19:48:22.551Z,3.80
2023-03-29T19:50:50.032Z,3.15
2023-03-29T19:53:16.490Z,3.88
2023-03-29T19:55:44.898Z,3.83
2023-03-29T19:58:11.372Z,3.20
2023-03-29T20:00:38.871Z,3.70
2023-03-29T20:03:09.091Z,2.47
2023-03-29T20:05:36.736Z,3.75
2023-03-29T20:08:03.312Z,3.50
2023-03-29T20:10:29.704Z,3.08
2023-03-29T20:12:56.902Z,2.92
2023-03-29T20:15:26.172Z,2.88
2023-03-29T20:17:55.322Z,3.42
2023-03-29T20:20:24.566Z,2.53
2023-03-29T20:23:04.349Z,2.60
2023-03-29T20:25:31.751Z,2.72
2023-03-29T20:27:59.484Z,3.60
2023-03-29T20:30:26.028Z,3.05
2023-03-29T20:32:52.534Z,3.08
2023-03-29T20:35:18.996Z,3.85
2023-03-29T20:37:45.692Z,3.33
2023-03-29T20:40:12.861Z,2.58
2023-03-29T20:42:39.327Z,2.72
2023-03-29T20:45:07.734Z,2.83
2023-03-29T20:47:42.054Z,3.08
2023-03-29T20:50:10.389Z,2.63
2023-03-29T20:52:36.751Z,3.05
2023-03-29T20:55:03.483Z,2.90
2023-03-29T20:57:30.546Z,2.70
2023-03-29T20:59:57.010Z,2.83
2023-03-29T21:02:23.620Z,3.53
2023-03-29T21:04:53.615Z,2.60
2023-03-29T21:07:21.439Z,2.85
2023-03-29T21:09:49.783Z,2.75
2023-03-29T21:12:16.699Z,2.75
2023-03-29T21:14:43.504Z,3.10
2023-03-29T21:17:10.293Z,2.90
2023-03-29T21:19:38.159Z,3.53
2023-03-29T21:22:05.109Z,2.88
2023-03-29T21:24:32.953Z,2.67
2023-03-29T21:27:00.465Z,2.88
2023-03-29T21:29:27.172Z,3.00
2023-03-29T21:31:53.807Z,2.92
2023-03-29T21:34:20.327Z,2.90
2023-03-29T21:36:46.763Z,3.30
2023-03-29T21:39:13.187Z,2.47
2023-03-29T21:41:39.630Z,3.03
2023-03-29T21:44:06.120Z,3.08
2023-03-29T21:46:32.496Z,2.50
2023-03-29T21:48:58.973Z,2.40
2023-03-29T21:51:25.492Z,2.65
2023-03-29T21:53:51.861Z,2.50
2023-03-29T21:56:18.239Z,3.30
2023-03-29T21:58:44.638Z,2.38
2023-03-29T22:01:11.223Z,2.78
2023-03-29T22:03:37.975Z,2.53
2023-03-29T22:06:08.494Z,2.78
2023-03-29T22:08:38.741Z,2.25
2023-03-29T22:11:08.637Z,2.30
2023-03-29T22:13:35.331Z,2.55
2023-03-29T22:16:03.732Z,2.60
2023-03-29T22:18:42.333Z,2.65
2023-03-29T22:21:15.003Z,2.22
2023-03-29T22:23:42.703Z,2.85
2023-03-29T22:26:11.001Z,2.60
2023-03-29T22:28:37.993Z,2.40
2023-03-29T22:31:06.389Z,2.03
2023-03-29T22:33:33.655Z,2.90
2023-03-29T22:36:00.604Z,2.70
2023-03-29T22:38:28.144Z,2.20
2023-03-29T22:40:55.269Z,2.75
2023-03-29T22:43:22.039Z,3.20
2023-03-29T22:45:49.102Z,2.53
2023-03-29T22:48:15.877Z,2.50
2023-03-29T22:50:42.875Z,3.00
2023-03-29T22:53:10.268Z,2.72
2023-03-29T22:55:37.033Z,2.20
2023-03-29T22:58:03.609Z,2.30
2023-03-29T23:00:30.811Z,2.33
2023-03-29T23:02:57.355Z,2.72
2023-03-29T23:05:23.789Z,2.60
2023-03-29T23:07:50.437Z,3.20
2023-03-29T23:10:16.961Z,2.22
2023-03-29T23:12:43.403Z,2.20
2023-03-29T23:15:11.165Z,2.65
2023-03-29T23:17:37.548Z,3.00
2023-03-29T23:20:05.975Z,2.30
2023-03-29T23:22:34.227Z,2.25
2023-03-29T23:25:00.604Z,2.40
2023-03-29T23:27:27.003Z,2.50
2023-03-29T23:29:53.378Z,2.38
2023-03-29T23:32:19.798Z,2.60
2023-03-29T23:34:46.163Z,2.42
2023-03-29T23:37:12.594Z,2.35
2023-03-29T23:39:39.383Z,2.67
2023-03-29T23:42:05.835Z,2.53
2023-03-29T23:44:32.513Z,2.50
2023-03-29T23:46:59.014Z,2.55
2023-03-29T23:49:25.435Z,2.38
2023-03-29T23:51:51.807Z,2.33
2023-03-29T23:54:18.199Z,2.25
2023-03-29T23:56:44.656Z,2.50
2023-03-29T23:59:11.042Z,2.38
